Time;durP1;ratioP1;P1;durP2;ratioP2;P2;SDS_P1;SDS_P2;PMS_P1;PMS_P2;Temp;Humidity;BMP_temperature;BMP_pressure;BME280_temperature;BME280_humidity;BME280_pressure;Samples;Min_cycle;Max_cycle;Signal;HPM_P1;HPM_P2
2023/03/19 00:00:17;;;;;;;4.07;2.92;;;;;;;;;;5006650;28;20671;-71
2023/03/19 00:02:48;;;;;;;4.53;2.88;;;;;;;;;;5008138;28;20217;-71
2023/03/19 00:05:13;;;;;;;4.40;3.23;;;;;;;;;;5003328;28;20190;-73
2023/03/19 00:07:39;;;;;;;3.67;3.25;;;;;;;;;;5001308;28;20191;-70
2023/03/19 00:10:04;;;;;;;3.50;3.00;;;;;;;;;;5002846;28;20258;-71
2023/03/19 00:12:30;;;;;;;5.20;3.47;;;;;;;;;;4994656;28;20203;-73
2023/03/19 00:14:55;;;;;;;6.63;3.50;;;;;;;;;;5011710;28;20179;-73
2023/03/19 00:17:21;;;;;;;4.30;3.40;;;;;;;;;;5013281;28;20182;-72
2023/03/19 00:19:46;;;;;;;8.90;3.43;;;;;;;;;;5016321;28;20241;-73
2023/03/19 00:22:11;;;;;;;4.10;3.40;;;;;;;;;;5016906;28;20204;-73
2023/03/19 00:24:37;;;;;;;4.72;3.72;;;;;;;;;;5011086;28;20190;-72
2023/03/19 00:27:02;;;;;;;4.47;3.70;;;;;;;;;;5017726;28;20261;-72
2023/03/19 00:29:27;;;;;;;8.53;3.97;;;;;;;;;;5009581;28;20629;-72
2023/03/19 00:31:53;;;;;;;5.97;3.80;;;;;;;;;;5008860;28;20214;-72
2023/03/19 00:34:18;;;;;;;6.00;3.80;;;;;;;;;;5006513;28;20168;-73
2023/03/19 00:36:44;;;;;;;6.33;3.67;;;;;;;;;;5010702;28;20175;-72
2023/03/19 00:39:09;;;;;;;5.00;3.87;;;;;;;;;;5011616;28;20179;-72
2023/03/19 00:41:34;;;;;;;4.90;3.90;;;;;;;;;;5012255;28;20195;-73
2023/03/19 00:43:59;;;;;;;6.10;4.00;;;;;;;;;;5010396;28;20266;-73
2023/03/19 00:46:25;;;;;;;5.07;4.30;;;;;;;;;;5015490;28;20182;-72
2023/03/19 00:48:54;;;;;;;4.73;3.93;;;;;;;;;;5018050;28;20644;-72
2023/03/19 00:51:19;;;;;;;6.37;4.07;;;;;;;;;;5016881;28;20225;-72
2023/03/19 00:53:44;;;;;;;4.73;3.97;;;;;;;;;;5012173;28;20266;-72
2023/03/19 00:56:11;;;;;;;6.60;4.70;;;;;;;;;;4995407;28;20691;-72
2023/03/19 00:58:37;;;;;;;7.20;4.60;;;;;;;;;;5008426;28;20184;-72
2023/03/19 01:01:03;;;;;;;6.60;4.60;;;;;;;;;;4999484;28;20290;-72
2023/03/19 01:03:28;;;;;;;7.93;4.60;;;;;;;;;;5003226;28;20215;-71
2023/03/19 01:05:53;;;;;;;5.90;4.70;;;;;;;;;;5007830;28;20190;-72
2023/03/19 01:08:18;;;;;;;5.40;4.60;;;;;;;;;;5013227;28;20179;-72
2023/03/19 01:10:44;;;;;;;5.73;4.67;;;;;;;;;;5011389;28;20210;-72
2023/03/19 01:13:09;;;;;;;5.13;4.53;;;;;;;;;;5001366;28;20265;-72
2023/03/19 01:15:39;;;;;;;7.07;5.27;;;;;;;;;;5004931;28;20178;-72
2023/03/19 01:18:04;;;;;;;6.00;5.27;;;;;;;;;;5000402;28;20176;-72
2023/03/19 01:20:30;;;;;;;5.50;4.97;;;;;;;;;;5006548;28;20185;-72
2023/03/19 01:22:55;;;;;;;5.40;4.73;;;;;;;;;;4998603;28;20180;-71
2023/03/19 01:25:21;;;;;;;7.17;4.87;;;;;;;;;;5002630;28;20671;-72
2023/03/19 01:27:46;;;;;;;7.80;5.00;;;;;;;;;;5007850;28;20191;-72
2023/03/19 01:30:11;;;;;;;6.60;5.13;;;;;;;;;;5005599;28;20200;-72
2023/03/19 01:32:36;;;;;;;6.67;5.63;;;;;;;;;;5011527;28;20462;-71
2023/03/19 01:35:02;;;;;;;5.60;4.93;;;;;;;;;;5009543;28;20190;-71
2023/03/19 01:37:28;;;;;;;6.83;5.57;;;;;;;;;;5009901;28;20617;-71
2023/03/19 01:39:53;;;;;;;7.20;5.80;;;;;;;;;;5012375;28;20560;-72
2023/03/19 01:42:18;;;;;;;6.80;5.00;;;;;;;;;;5010545;28;20233;-72
2023/03/19 01:44:43;;;;;;;11.83;6.20;;;;;;;;;;5011222;28;20301;-72
2023/03/19 01:47:28;;;;;;;6.47;5.70;;;;;;;;;;5012642;28;20210;-73
2023/03/19 01:49:55;;;;;;;6.40;5.70;;;;;;;;;;5005031;28;20207;-72
2023/03/19 01:52:22;;;;;;;9.43;5.23;;;;;;;;;;5003395;28;20688;-72
2023/03/19 01:54:48;;;;;;;8.67;6.67;;;;;;;;;;5006361;28;20547;-72
2023/03/19 01:57:13;;;;;;;7.40;5.87;;;;;;;;;;5009545;28;20278;-73
2023/03/19 01:59:41;;;;;;;8.43;6.07;;;;;;;;;;5006680;28;20237;-71
2023/03/19 02:02:10;;;;;;;7.37;5.33;;;;;;;;;;5011955;28;20260;-73
2023/03/19 02:04:37;;;;;;;7.10;6.03;;;;;;;;;;5023854;28;20499;-73
2023/03/19 02:07:02;;;;;;;5.83;5.30;;;;;;;;;;5013117;28;20599;-72
2023/03/19 02:09:28;;;;;;;7.03;5.33;;;;;;;;;;5009896;28;20179;-72
2023/03/19 02:11:53;;;;;;;7.23;6.17;;;;;;;;;;5007525;28;20203;-72
2023/03/19 02:14:18;;;;;;;7.50;6.30;;;;;;;;;;5001896;28;20207;-72
2023/03/19 02:16:45;;;;;;;6.13;5.20;;;;;;;;;;5010105;28;20680;-72
2023/03/19 02:19:14;;;;;;;6.70;5.93;;;;;;;;;;5013066;28;20252;-72
2023/03/19 02:21:40;;;;;;;8.07;6.13;;;;;;;;;;5005666;28;20640;-73
2023/03/19 02:24:07;;;;;;;7.07;6.33;;;;;;;;;;5009966;28;20183;-72
2023/03/19 02:26:33;;;;;;;9.80;6.70;;;;;;;;;;5004401;28;20685;-72
2023/03/19 02:28:58;;;;;;;8.73;6.00;;;;;;;;;;5009470;28;20211;-72
2023/03/19 02:31:23;;;;;;;6.57;5.87;;;;;;;;;;5010901;28;20233;-72
2023/03/19 02:33:55;;;;;;;8.07;6.80;;;;;;;;;;5002260;28;20218;-72
2023/03/19 02:36:21;;;;;;;7.93;6.37;;;;;;;;;;5010707;28;20735;-72
2023/03/19 02:38:46;;;;;;;7.40;6.37;;;;;;;;;;5008304;28;20203;-72
2023/03/19 02:41:11;;;;;;;8.23;6.37;;;;;;;;;;5012520;28;20187;-72
2023/03/19 02:43:38;;;;;;;7.17;6.40;;;;;;;;;;5012670;28;20186;-72
2023/03/19 02:46:05;;;;;;;8.07;6.83;;;;;;;;;;5012161;28;20175;-72
2023/03/19 02:48:31;;;;;;;8.17;7.00;;;;;;;;;;5012596;28;20186;-72
2023/03/19 02:50:56;;;;;;;8.40;7.13;;;;;;;;;;5012164;28;20211;-72
2023/03/19 02:53:22;;;;;;;8.63;7.73;;;;;;;;;;5009774;28;20174;-73
2023/03/19 02:55:47;;;;;;;9.50;8.00;;;;;;;;;;5006965;28;20179;-72
2023/03/19 02:58:12;;;;;;;10.23;8.23;;;;;;;;;;5002588;28;20171;-72
2023/03/19 03:00:38;;;;;;;11.03;7.57;;;;;;;;;;5003748;28;20297;-72
2023/03/19 03:03:05;;;;;;;12.33;8.63;;;;;;;;;;5012786;28;20194;-72
2023/03/19 03:05:31;;;;;;;10.23;8.23;;;;;;;;;;5009301;28;20207;-73
2023/03/19 03:07:56;;;;;;;10.60;8.17;;;;;;;;;;5013263;28;20668;-71
2023/03/19 03:10:22;;;;;;;11.23;8.97;;;;;;;;;;5008912;28;20626;-71
2023/03/19 03:12:47;;;;;;;10.23;8.53;;;;;;;;;;5009273;28;20195;-70
2023/03/19 03:15:13;;;;;;;12.37;9.20;;;;;;;;;;5011252;28;20254;-71
2023/03/19 03:17:38;;;;;;;11.53;9.87;;;;;;;;;;5008980;28;20202;-71
2023/03/19 03:20:05;;;;;;;13.27;10.00;;;;;;;;;;5002254;28;20616;-71
2023/03/19 03:22:30;;;;;;;11.67;10.47;;;;;;;;;;5006459;28;20194;-73
2023/03/19 03:24:55;;;;;;;12.07;9.20;;;;;;;;;;5011821;28;20550;-73
2023/03/19 03:27:20;;;;;;;10.73;8.37;;;;;;;;;;5002168;28;20262;-72
2023/03/19 03:29:46;;;;;;;13.23;9.60;;;;;;;;;;5006285;28;20545;-73
2023/03/19 03:32:11;;;;;;;10.83;8.40;;;;;;;;;;5004264;28;20195;-73
2023/03/19 03:34:37;;;;;;;12.27;9.87;;;;;;;;;;5009907;28;20506;-73
2023/03/19 03:37:02;;;;;;;10.27;9.00;;;;;;;;;;5000305;28;20190;-73
2023/03/19 03:39:27;;;;;;;13.73;9.17;;;;;;;;;;5006998;28;20192;-73
2023/03/19 03:41:52;;;;;;;13.10;10.30;;;;;;;;;;5008603;28;20187;-72
2023/03/19 03:44:18;;;;;;;12.67;10.37;;;;;;;;;;5010583;28;20167;-72
2023/03/19 03:46:43;;;;;;;15.07;10.23;;;;;;;;;;5008174;28;20210;-73
2023/03/19 03:49:08;;;;;;;16.23;10.80;;;;;;;;;;5005224;28;20192;-73
2023/03/19 03:51:34;;;;;;;11.70;9.93;;;;;;;;;;5011570;28;20211;-72
2023/03/19 03:53:59;;;;;;;13.70;10.50;;;;;;;;;;5005865;28;20648;-72
2023/03/19 03:56:25;;;;;;;15.83;11.13;;;;;;;;;;5008527;28;20171;-72
2023/03/19 03:58:51;;;;;;;13.13;10.13;;;;;;;;;;5004253;28;20664;-72
2023/03/19 04:01:17;;;;;;;13.47;10.77;;;;;;;;;;5008250;28;20574;-72
2023/03/19 04:03:43;;;;;;;12.63;10.70;;;;;;;;;;5004020;28;20186;-72
2023/03/19 04:06:12;;;;;;;16.40;12.53;;;;;;;;;;5009222;28;20171;-72
2023/03/19 04:08:37;;;;;;;14.90;11.70;;;;;;;;;;5012018;28;20353;-72
2023/03/19 04:11:05;;;;;;;15.43;11.57;;;;;;;;;;5010164;28;20294;-72
2023/03/19 04:13:35;;;;;;;16.43;11.60;;;;;;;;;;5004152;28;20266;-72
2023/03/19 04:16:00;;;;;;;17.00;12.17;;;;;;;;;;5007631;28;20171;-72
2023/03/19 04:18:25;;;;;;;18.60;13.23;;;;;;;;;;5010104;28;20175;-72
2023/03/19 04:20:51;;;;;;;17.13;12.57;;;;;;;;;;4996267;28;20711;-72
2023/03/19 04:23:16;;;;;;;17.37;11.47;;;;;;;;;;5003183;28;20711;-73
2023/03/19 04:25:41;;;;;;;17.33;12.07;;;;;;;;;;5009592;28;20540;-72
2023/03/19 04:28:07;;;;;;;15.17;11.73;;;;;;;;;;5005167;28;20661;-72
2023/03/19 04:30:33;;;;;;;17.57;12.43;;;;;;;;;;5011433;28;20273;-73
2023/03/19 04:32:58;;;;;;;17.33;12.93;;;;;;;;;;5007381;28;20190;-72
2023/03/19 04:35:23;;;;;;;16.43;11.77;;;;;;;;;;5009321;28;20167;-72
2023/03/19 04:37:48;;;;;;;16.80;12.10;;;;;;;;;;5006433;28;20183;-73
2023/03/19 04:40:15;;;;;;;17.93;11.63;;;;;;;;;;5003684;28;20270;-72
2023/03/19 04:42:40;;;;;;;19.77;11.20;;;;;;;;;;5009643;28;20206;-72
2023/03/19 04:45:06;;;;;;;16.27;11.77;;;;;;;;;;5011144;28;20168;-72
2023/03/19 04:47:31;;;;;;;13.10;10.67;;;;;;;;;;5007835;28;20181;-72
2023/03/19 04:49:56;;;;;;;22.37;11.70;;;;;;;;;;5011812;28;20232;-73
2023/03/19 04:52:22;;;;;;;18.90;12.70;;;;;;;;;;5009835;28;20215;-72
2023/03/19 04:54:47;;;;;;;18.27;13.03;;;;;;;;;;5011728;28;20232;-72
2023/03/19 04:57:13;;;;;;;21.27;12.67;;;;;;;;;;5007792;28;20179;-72
2023/03/19 04:59:38;;;;;;;18.37;12.60;;;;;;;;;;5012898;28;20209;-73
2023/03/19 05:02:03;;;;;;;21.63;12.97;;;;;;;;;;5014750;28;20201;-71
2023/03/19 05:04:28;;;;;;;18.20;12.47;;;;;;;;;;5011727;28;20206;-71
2023/03/19 05:06:54;;;;;;;18.27;11.90;;;;;;;;;;5014959;28;20605;-71
2023/03/19 05:09:19;;;;;;;17.13;12.70;;;;;;;;;;5014201;28;20613;-73
2023/03/19 05:11:44;;;;;;;20.50;13.20;;;;;;;;;;5006776;28;20199;-73
2023/03/19 05:14:09;;;;;;;18.43;13.03;;;;;;;;;;5012380;28;20175;-73
2023/03/19 05:16:35;;;;;;;20.20;12.73;;;;;;;;;;5007002;28;20178;-73
2023/03/19 05:19:00;;;;;;;18.67;12.73;;;;;;;;;;5007472;28;20179;-73
2023/03/19 05:21:25;;;;;;;18.87;13.23;;;;;;;;;;5003999;28;20225;-72
2023/03/19 05:23:53;;;;;;;18.30;12.83;;;;;;;;;;4998250;28;20634;-73
2023/03/19 05:26:18;;;;;;;23.53;14.80;;;;;;;;;;5001476;28;20225;-73
2023/03/19 05:28:43;;;;;;;30.40;17.77;;;;;;;;;;4996445;28;20187;-73
2023/03/19 05:31:09;;;;;;;30.73;18.93;;;;;;;;;;5009213;28;20684;-72
2023/03/19 05:33:34;;;;;;;29.30;18.53;;;;;;;;;;5002138;28;20186;-72
2023/03/19 05:35:59;;;;;;;28.80;17.37;;;;;;;;;;5010941;28;20179;-72
2023/03/19 05:38:25;;;;;;;30.43;19.57;;;;;;;;;;5008012;28;20183;-72
2023/03/19 05:40:51;;;;;;;30.97;19.00;;;;;;;;;;5002514;28;20200;-72
2023/03/19 05:43:16;;;;;;;30.20;19.40;;;;;;;;;;5012326;28;20198;-72
2023/03/19 05:45:42;;;;;;;36.27;21.60;;;;;;;;;;5012779;28;20187;-72
2023/03/19 05:48:07;;;;;;;37.10;21.80;;;;;;;;;;5008036;28;20179;-72
2023/03/19 05:50:33;;;;;;;38.50;22.07;;;;;;;;;;5002934;28;20290;-72
2023/03/19 05:52:58;;;;;;;39.03;23.47;;;;;;;;;;5012267;28;20270;-72
2023/03/19 05:55:23;;;;;;;38.50;23.07;;;;;;;;;;5005821;28;20655;-72
2023/03/19 05:57:48;;;;;;;43.43;22.50;;;;;;;;;;5002010;28;20183;-72
2023/03/19 06:00:14;;;;;;;38.17;21.73;;;;;;;;;;4999685;28;20175;-72
2023/03/19 06:02:40;;;;;;;48.50;24.23;;;;;;;;;;5009824;28;20202;-72
2023/03/19 06:05:05;;;;;;;40.10;23.13;;;;;;;;;;5001421;28;20258;-72
2023/03/19 06:07:31;;;;;;;40.57;22.47;;;;;;;;;;4999021;28;20207;-72
2023/03/19 06:09:56;;;;;;;37.67;23.03;;;;;;;;;;5004683;28;20290;-73
2023/03/19 06:12:22;;;;;;;46.33;25.07;;;;;;;;;;5009628;28;20202;-73
2023/03/19 06:14:47;;;;;;;35.30;23.07;;;;;;;;;;4995767;28;20214;-73
2023/03/19 06:17:13;;;;;;;41.80;23.70;;;;;;;;;;5008378;28;20233;-73
2023/03/19 06:19:38;;;;;;;37.97;21.73;;;;;;;;;;5008816;28;20176;-73
2023/03/19 06:22:03;;;;;;;40.13;22.80;;;;;;;;;;5002546;28;20240;-72
2023/03/19 06:24:29;;;;;;;38.27;23.90;;;;;;;;;;5011268;28;20558;-72
2023/03/19 06:26:54;;;;;;;36.60;23.10;;;;;;;;;;5007678;28;20333;-72
2023/03/19 06:29:20;;;;;;;36.90;22.20;;;;;;;;;;5010637;28;20182;-73
2023/03/19 06:31:45;;;;;;;36.37;23.27;;;;;;;;;;5009316;28;20297;-73
2023/03/19 06:34:10;;;;;;;36.83;23.07;;;;;;;;;;5003192;28;20171;-72
2023/03/19 06:36:36;;;;;;;32.47;21.70;;;;;;;;;;5002219;28;20179;-73
2023/03/19 06:39:02;;;;;;;36.97;20.90;;;;;;;;;;5009288;28;20262;-73
2023/03/19 06:41:27;;;;;;;33.23;20.03;;;;;;;;;;5013196;28;20195;-72
2023/03/19 06:43:52;;;;;;;34.83;20.73;;;;;;;;;;5009691;28;20171;-72
2023/03/19 06:46:17;;;;;;;33.70;20.47;;;;;;;;;;5012413;28;20186;-72
2023/03/19 06:48:42;;;;;;;30.23;20.00;;;;;;;;;;5012511;28;20186;-72
2023/03/19 06:51:08;;;;;;;31.50;19.90;;;;;;;;;;5007657;28;20199;-72
2023/03/19 06:53:33;;;;;;;34.00;19.80;;;;;;;;;;5003480;28;20179;-72
2023/03/19 06:55:58;;;;;;;32.03;20.20;;;;;;;;;;5010771;28;20179;-72
2023/03/19 06:58:23;;;;;;;31.87;19.90;;;;;;;;;;5005776;28;20250;-73
2023/03/19 07:00:49;;;;;;;33.27;19.67;;;;;;;;;;5004171;28;20264;-73
2023/03/19 07:03:15;;;;;;;32.37;20.87;;;;;;;;;;5007132;28;20175;-72
2023/03/19 07:05:40;;;;;;;30.53;18.93;;;;;;;;;;5007888;28;20620;-72
2023/03/19 07:08:10;;;;;;;26.43;17.40;;;;;;;;;;5012843;28;20177;-72
2023/03/19 07:10:36;;;;;;;28.67;19.23;;;;;;;;;;5009841;28;20214;-72
2023/03/19 07:13:01;;;;;;;30.53;20.00;;;;;;;;;;5004163;28;20180;-72
2023/03/19 07:15:26;;;;;;;31.70;18.97;;;;;;;;;;5005244;28;20171;-72
2023/03/19 07:17:51;;;;;;;28.83;18.70;;;;;;;;;;5006677;28;20672;-72
2023/03/19 07:20:16;;;;;;;24.67;16.80;;;;;;;;;;5007584;28;20183;-72
2023/03/19 07:22:42;;;;;;;28.10;17.10;;;;;;;;;;5002792;28;20210;-72
2023/03/19 07:25:07;;;;;;;26.67;17.53;;;;;;;;;;5007274;28;20274;-72
2023/03/19 07:27:33;;;;;;;26.77;17.30;;;;;;;;;;5009070;28;20190;-72
2023/03/19 07:29:58;;;;;;;27.37;17.30;;;;;;;;;;5007805;28;20206;-72
2023/03/19 07:32:23;;;;;;;27.67;17.60;;;;;;;;;;5011516;28;20253;-72
2023/03/19 07:34:48;;;;;;;28.07;18.17;;;;;;;;;;5007660;28;21300;-72
2023/03/19 07:37:14;;;;;;;26.83;18.17;;;;;;;;;;5008429;28;20582;-72
2023/03/19 07:39:39;;;;;;;27.77;18.00;;;;;;;;;;5004913;28;20184;-72
2023/03/19 07:42:05;;;;;;;25.47;17.50;;;;;;;;;;5002771;28;20288;-72
2023/03/19 07:44:30;;;;;;;28.90;16.87;;;;;;;;;;5010375;28;20182;-72
2023/03/19 07:46:55;;;;;;;26.70;17.77;;;;;;;;;;5012911;28;20167;-72
2023/03/19 07:49:22;;;;;;;29.40;19.20;;;;;;;;;;5011173;28;20185;-72
2023/03/19 07:51:47;;;;;;;23.23;14.90;;;;;;;;;;5012125;28;20211;-72
2023/03/19 07:54:12;;;;;;;29.63;16.67;;;;;;;;;;5012274;28;20194;-72
2023/03/19 07:56:37;;;;;;;23.27;16.07;;;;;;;;;;5004537;28;20179;-72
2023/03/19 07:59:02;;;;;;;24.50;15.30;;;;;;;;;;5010760;28;20195;-72
2023/03/19 08:01:28;;;;;;;26.33;15.90;;;;;;;;;;5005873;28;20206;-72
2023/03/19 08:03:53;;;;;;;23.23;14.67;;;;;;;;;;5005777;28;20175;-72
2023/03/19 08:06:18;;;;;;;25.70;16.17;;;;;;;;;;5003755;28;20183;-72
2023/03/19 08:08:43;;;;;;;26.30;16.60;;;;;;;;;;5011035;28;20179;-72
2023/03/19 08:11:09;;;;;;;25.97;16.27;;;;;;;;;;5011804;28;20215;-72
2023/03/19 08:13:34;;;;;;;24.57;14.73;;;;;;;;;;5011774;28;20179;-72
2023/03/19 08:15:59;;;;;;;21.47;15.07;;;;;;;;;;5011202;28;20175;-72
2023/03/19 08:18:25;;;;;;;27.03;15.63;;;;;;;;;;5011470;28;20171;-72
2023/03/19 08:20:51;;;;;;;25.43;15.83;;;;;;;;;;5009999;28;20202;-72
2023/03/19 08:23:16;;;;;;;27.30;16.40;;;;;;;;;;5011412;28;20182;-72
2023/03/19 08:25:41;;;;;;;28.77;18.23;;;;;;;;;;5010831;28;20309;-72
2023/03/19 08:28:08;;;;;;;22.27;14.67;;;;;;;;;;5011838;28;20178;-72
2023/03/19 08:30:34;;;;;;;26.00;15.87;;;;;;;;;;5010027;28;20264;-72
2023/03/19 08:32:59;;;;;;;22.83;14.50;;;;;;;;;;5007227;28;20262;-72
2023/03/19 08:35:27;;;;;;;23.17;14.73;;;;;;;;;;5012027;28;20175;-72
2023/03/19 08:37:53;;;;;;;23.07;15.13;;;;;;;;;;5010370;28;20183;-72
2023/03/19 08:40:18;;;;;;;25.07;14.27;;;;;;;;;;5006182;28;20245;-72
2023/03/19 08:42:44;;;;;;;22.07;13.87;;;;;;;;;;5013686;28;20215;-73
2023/03/19 08:45:10;;;;;;;21.83;13.73;;;;;;;;;;5015189;28;20183;-73
2023/03/19 08:47:35;;;;;;;22.50;14.03;;;;;;;;;;5013756;28;20186;-72
2023/03/19 08:50:00;;;;;;;22.57;13.97;;;;;;;;;;5008008;28;20203;-73
2023/03/19 08:52:26;;;;;;;22.13;14.87;;;;;;;;;;5008713;28;20234;-72
2023/03/19 08:54:51;;;;;;;18.53;12.97;;;;;;;;;;5013760;28;20171;-72
2023/03/19 08:57:16;;;;;;;23.70;13.27;;;;;;;;;;5012936;28;20206;-72
2023/03/19 08:59:41;;;;;;;21.57;13.13;;;;;;;;;;5013361;28;20675;-72
2023/03/19 09:02:08;;;;;;;19.43;14.03;;;;;;;;;;5011315;28;20191;-72
2023/03/19 09:04:37;;;;;;;17.83;11.97;;;;;;;;;;5004931;28;20219;-72
2023/03/19 09:07:02;;;;;;;19.87;12.70;;;;;;;;;;5014719;28;20175;-72
2023/03/19 09:09:28;;;;;;;18.03;12.50;;;;;;;;;;5014415;28;20254;-72
2023/03/19 09:11:53;;;;;;;18.33;12.33;;;;;;;;;;5006052;28;20195;-72
2023/03/19 09:14:21;;;;;;;16.37;11.23;;;;;;;;;;5015277;28;20167;-72
2023/03/19 09:16:47;;;;;;;16.50;10.77;;;;;;;;;;5012557;28;20179;-72
2023/03/19 09:19:12;;;;;;;19.13;12.93;;;;;;;;;;5014925;28;20542;-72
2023/03/19 09:21:38;;;;;;;20.10;12.40;;;;;;;;;;5014612;28;20203;-72
2023/03/19 09:24:03;;;;;;;20.87;12.57;;;;;;;;;;5014802;28;20708;-72
2023/03/19 09:26:28;;;;;;;20.53;14.73;;;;;;;;;;5014201;28;20183;-72
2023/03/19 09:28:53;;;;;;;23.50;14.13;;;;;;;;;;5014394;28;20607;-72
2023/03/19 09:31:19;;;;;;;18.63;12.17;;;;;;;;;;5007984;28;20211;-72
2023/03/19 09:33:44;;;;;;;21.63;13.03;;;;;;;;;;5013238;28;20179;-72
2023/03/19 09:36:09;;;;;;;20.57;13.17;;;;;;;;;;5014585;28;20174;-72
2023/03/19 09:38:35;;;;;;;20.47;12.73;;;;;;;;;;5010480;28;20178;-72
2023/03/19 09:41:00;;;;;;;21.67;13.57;;;;;;;;;;5013534;28;20194;-72
2023/03/19 09:43:40;;;;;;;19.03;12.10;;;;;;;;;;5011562;28;20661;-72
2023/03/19 09:46:12;;;;;;;22.88;14.20;;;;;;;;;;5013260;28;20178;-72
2023/03/19 09:48:37;;;;;;;23.25;14.73;;;;;;;;;;5013193;28;20179;-72
2023/03/19 09:51:05;;;;;;;22.25;13.65;;;;;;;;;;5004970;28;20207;-72
2023/03/19 09:53:49;;;;;;;22.98;14.93;;;;;;;;;;5010598;28;20171;-72
2023/03/19 09:56:15;;;;;;;22.50;14.23;;;;;;;;;;5002938;28;20171;-72
2023/03/19 09:58:41;;;;;;;20.58;13.73;;;;;;;;;;5014233;28;20178;-72
2023/03/19 10:01:15;;;;;;;23.40;14.67;;;;;;;;;;5013628;28;20218;-72
2023/03/19 10:03:45;;;;;;;20.40;12.95;;;;;;;;;;5013818;28;20201;-72
2023/03/19 10:06:28;;;;;;;20.52;12.55;;;;;;;;;;5010043;28;20654;-73
2023/03/19 10:09:12;;;;;;;19.33;14.07;;;;;;;;;;5011853;28;20234;-72
2023/03/19 10:11:37;;;;;;;26.00;13.18;;;;;;;;;;5014719;28;20206;-72
2023/03/19 10:14:22;;;;;;;20.95;13.45;;;;;;;;;;5013474;28;20641;-72
2023/03/19 10:16:49;;;;;;;21.83;12.43;;;;;;;;;;5007395;28;20209;-72
2023/03/19 10:19:17;;;;;;;21.30;13.50;;;;;;;;;;5012185;28;20171;-72
2023/03/19 10:21:44;;;;;;;24.73;16.13;;;;;;;;;;5012398;28;20203;-72
2023/03/19 10:24:14;;;;;;;21.30;14.30;;;;;;;;;;5012679;28;20179;-73
2023/03/19 10:26:40;;;;;;;23.52;13.85;;;;;;;;;;5012945;28;20652;-73
2023/03/19 10:29:17;;;;;;;19.42;13.57;;;;;;;;;;5011491;28;20179;-72
2023/03/19 10:31:46;;;;;;;19.67;11.73;;;;;;;;;;5012179;28;20222;-73
2023/03/19 10:34:30;;;;;;;16.02;11.77;;;;;;;;;;5012863;28;20217;-72
2023/03/19 10:37:06;;;;;;;18.27;12.20;;;;;;;;;;5012734;28;20178;-73
2023/03/19 10:39:33;;;;;;;18.83;12.13;;;;;;;;;;5015181;28;20209;-72
2023/03/19 10:41:58;;;;;;;20.08;12.10;;;;;;;;;;5010991;28;20195;-72
2023/03/19 10:44:29;;;;;;;18.30;11.33;;;;;;;;;;5012685;28;20198;-72
2023/03/19 10:46:58;;;;;;;19.73;11.68;;;;;;;;;;5010799;28;20543;-72
2023/03/19 10:49:24;;;;;;;19.25;10.50;;;;;;;;;;5013112;28;20174;-72
2023/03/19 10:51:49;;;;;;;22.33;11.05;;;;;;;;;;5004800;28;20633;-71
2023/03/19 10:54:18;;;;;;;17.58;10.98;;;;;;;;;;5009020;28;20171;-72
2023/03/19 10:56:45;;;;;;;17.83;10.35;;;;;;;;;;5012435;28;20182;-72
2023/03/19 10:59:24;;;;;;;19.65;11.07;;;;;;;;;;5007915;28;20178;-72
2023/03/19 11:01:54;;;;;;;21.77;11.05;;;;;;;;;;5008429;28;20594;-72
2023/03/19 11:04:20;;;;;;;18.50;10.65;;;;;;;;;;5009702;28;20183;-72
2023/03/19 11:06:50;;;;;;;21.30;11.25;;;;;;;;;;5012011;28;20191;-72
2023/03/19 11:09:22;;;;;;;25.52;13.57;;;;;;;;;;5006538;28;20695;-71
2023/03/19 11:11:49;;;;;;;27.80;13.30;;;;;;;;;;5010498;28;20241;-72
2023/03/19 11:14:24;;;;;;;29.37;14.37;;;;;;;;;;5009957;28;20629;-72
2023/03/19 11:16:52;;;;;;;25.35;11.60;;;;;;;;;;5005129;28;20687;-72
2023/03/19 11:19:19;;;;;;;22.80;11.53;;;;;;;;;;5003554;28;20589;-72
2023/03/19 11:21:52;;;;;;;24.20;11.83;;;;;;;;;;4999150;28;20207;-72
2023/03/19 11:24:18;;;;;;;23.30;12.00;;;;;;;;;;5010157;28;20559;-72
2023/03/19 11:26:52;;;;;;;27.40;13.32;;;;;;;;;;5009879;28;20198;-72
2023/03/19 11:29:17;;;;;;;27.50;13.32;;;;;;;;;;4999639;28;20265;-72
2023/03/19 11:31:52;;;;;;;25.35;12.13;;;;;;;;;;5006554;28;20762;-73
2023/03/19 11:34:36;;;;;;;23.92;12.68;;;;;;;;;;5008444;28;20763;-72
2023/03/19 11:37:07;;;;;;;24.50;13.38;;;;;;;;;;5010650;28;20261;-73
2023/03/19 11:39:50;;;;;;;27.30;12.90;;;;;;;;;;5008492;28;20637;-73
2023/03/19 11:42:27;;;;;;;26.48;13.38;;;;;;;;;;5005756;28;20201;-72
2023/03/19 11:44:55;;;;;;;25.45;12.50;;;;;;;;;;5007156;28;20179;-72
2023/03/19 11:47:36;;;;;;;23.85;13.32;;;;;;;;;;5006347;28;20174;-72
2023/03/19 11:50:04;;;;;;;26.80;14.20;;;;;;;;;;5009407;28;20206;-72
2023/03/19 11:52:39;;;;;;;27.10;13.93;;;;;;;;;;5001796;28;20209;-72
2023/03/19 11:55:10;;;;;;;27.92;14.57;;;;;;;;;;5004811;28;20175;-72
2023/03/19 11:57:35;;;;;;;30.85;15.52;;;;;;;;;;5003867;28;20649;-73
2023/03/19 12:00:08;;;;;;;27.05;14.38;;;;;;;;;;5007600;28;20194;-72
2023/03/19 12:02:33;;;;;;;27.60;15.38;;;;;;;;;;5007732;28;20206;-72
2023/03/19 12:05:02;;;;;;;29.15;15.75;;;;;;;;;;5007759;28;20245;-73
2023/03/19 12:07:30;;;;;;;26.65;15.13;;;;;;;;;;5009590;28;20187;-73
2023/03/19 12:10:15;;;;;;;30.27;16.20;;;;;;;;;;5012863;28;20283;-72
2023/03/19 12:12:52;;;;;;;26.63;15.23;;;;;;;;;;5008060;28;20206;-73
2023/03/19 12:15:18;;;;;;;28.45;13.38;;;;;;;;;;5009284;28;20199;-72
2023/03/19 12:18:15;;;;;;;27.92;14.88;;;;;;;;;;5009219;28;20202;-72
2023/03/19 12:20:41;;;;;;;25.52;13.50;;;;;;;;;;4974957;28;20631;-72
2023/03/19 12:23:12;;;;;;;25.75;14.75;;;;;;;;;;5008158;28;20263;-72
2023/03/19 12:25:43;;;;;;;26.98;14.70;;;;;;;;;;5013255;28;20652;-73
2023/03/19 12:28:08;;;;;;;24.08;12.50;;;;;;;;;;5013565;28;20195;-73
2023/03/19 12:30:56;;;;;;;18.00;11.45;;;;;;;;;;5015070;28;20199;-72
2023/03/19 12:33:34;;;;;;;17.23;11.15;;;;;;;;;;5004732;28;20186;-73
2023/03/19 12:36:00;;;;;;;17.30;10.98;;;;;;;;;;5006893;28;20225;-73
2023/03/19 12:38:30;;;;;;;18.23;11.13;;;;;;;;;;5015645;28;20245;-73
2023/03/19 12:41:01;;;;;;;19.23;11.15;;;;;;;;;;5005050;28;20199;-73
2023/03/19 12:43:33;;;;;;;17.58;10.88;;;;;;;;;;5011144;28;20660;-71
2023/03/19 12:46:02;;;;;;;15.93;12.20;;;;;;;;;;5010402;28;20192;-72
2023/03/19 12:48:30;;;;;;;17.65;12.63;;;;;;;;;;5012035;28;20606;-72
2023/03/19 12:50:57;;;;;;;16.02;12.10;;;;;;;;;;5014234;28;20272;-72
2023/03/19 12:53:31;;;;;;;15.70;12.02;;;;;;;;;;5006234;28;20179;-72
2023/03/19 12:55:58;;;;;;;17.75;11.93;;;;;;;;;;5010020;28;20171;-72
2023/03/19 12:58:30;;;;;;;18.95;12.07;;;;;;;;;;5008764;28;20224;-71
2023/03/19 13:01:11;;;;;;;16.58;11.77;;;;;;;;;;5001099;28;20191;-72
2023/03/19 13:03:49;;;;;;;16.75;11.75;;;;;;;;;;5000958;28;20176;-72
2023/03/19 13:06:14;;;;;;;17.27;11.48;;;;;;;;;;5009159;28;20187;-72
2023/03/19 13:08:47;;;;;;;16.88;11.15;;;;;;;;;;5010809;28;20171;-72
2023/03/19 13:11:15;;;;;;;17.15;12.00;;;;;;;;;;5007441;28;20217;-72
2023/03/19 13:14:00;;;;;;;14.70;10.43;;;;;;;;;;5007296;28;20179;-71
2023/03/19 13:16:47;;;;;;;18.35;10.73;;;;;;;;;;5003871;28;20594;-71
2023/03/19 13:19:25;;;;;;;14.68;10.38;;;;;;;;;;5010567;28;20642;-72
2023/03/19 13:21:52;;;;;;;17.25;10.65;;;;;;;;;;5012226;28;20210;-71
2023/03/19 13:24:24;;;;;;;15.55;10.55;;;;;;;;;;5006644;28;20237;-72
2023/03/19 13:26:51;;;;;;;16.15;10.23;;;;;;;;;;5009661;28;20178;-71
2023/03/19 13:29:27;;;;;;;16.15;11.10;;;;;;;;;;5006455;28;20179;-73
2023/03/19 13:31:58;;;;;;;16.20;9.60;;;;;;;;;;5013082;28;20206;-72
2023/03/19 13:34:25;;;;;;;13.40;8.73;;;;;;;;;;5007966;28;20190;-72
2023/03/19 13:36:52;;;;;;;15.57;10.90;;;;;;;;;;5011906;28;20193;-72
2023/03/19 13:39:18;;;;;;;16.92;11.00;;;;;;;;;;5014715;28;20171;-73
2023/03/19 13:41:51;;;;;;;17.92;11.02;;;;;;;;;;5012445;28;20734;-72
2023/03/19 13:44:35;;;;;;;15.63;10.38;;;;;;;;;;5010117;28;20187;-73
2023/03/19 13:47:02;;;;;;;22.92;11.32;;;;;;;;;;5009110;28;20163;-73
2023/03/19 13:49:28;;;;;;;16.17;10.93;;;;;;;;;;5012071;28;20261;-73
2023/03/19 13:51:55;;;;;;;19.27;10.82;;;;;;;;;;5010333;28;20350;-72
2023/03/19 13:54:31;;;;;;;18.23;11.35;;;;;;;;;;5006214;28;20176;-72
2023/03/19 13:57:00;;;;;;;17.30;11.70;;;;;;;;;;5011442;28;20171;-72
2023/03/19 13:59:26;;;;;;;16.77;10.52;;;;;;;;;;5007919;28;20175;-72
2023/03/19 14:01:51;;;;;;;19.27;11.10;;;;;;;;;;5009854;28;20628;-72
2023/03/19 14:04:19;;;;;;;14.27;10.00;;;;;;;;;;5010528;28;20305;-72
2023/03/19 14:06:46;;;;;;;15.18;10.40;;;;;;;;;;5007347;28;20202;-72
2023/03/19 14:09:32;;;;;;;11.98;9.15;;;;;;;;;;5011094;28;20209;-72
2023/03/19 14:12:09;;;;;;;12.38;9.07;;;;;;;;;;5010373;28;20203;-71
2023/03/19 14:14:39;;;;;;;11.27;8.35;;;;;;;;;;5008185;28;20187;-71
2023/03/19 14:17:12;;;;;;;12.43;8.63;;;;;;;;;;5013018;28;20167;-72
2023/03/19 14:19:39;;;;;;;14.63;9.00;;;;;;;;;;5003817;28;20186;-72
2023/03/19 14:22:16;;;;;;;17.45;10.68;;;;;;;;;;5007314;28;20214;-72
2023/03/19 14:24:52;;;;;;;12.10;8.43;;;;;;;;;;5006649;28;20182;-72